sensor_id;sensor_type;location;lat;lon;timestamp;temperature;humidity
6724;DHT22;3399;52.530;13.304;2024-03-29T00:01:10;9.60;99.90
6724;DHT22;3399;52.530;13.304;2024-03-29T00:03:35;9.60;99.90
6724;DHT22;3399;52.530;13.304;2024-03-29T00:06:00;9.60;99.90
6724;DHT22;3399;52.530;13.304;2024-03-29T00:08:26;9.60;99.90
6724;DHT22;3399;52.530;13.304;2024-03-29T00:10:52;9.70;99.90
6724;DHT22;3399;52.530;13.304;2024-03-29T00:13:17;9.70;99.90
6724;DHT22;3399;52.530;13.304;2024-03-29T00:15:45;9.70;99.90
6724;DHT22;3399;52.530;13.304;2024-03-29T00:18:11;9.70;99.90
6724;DHT22;3399;52.530;13.304;2024-03-29T00:20:36;9.80;99.90
6724;DHT22;3399;52.530;13.304;2024-03-29T00:23:02;9.80;99.90
6724;DHT22;3399;52.530;13.304;2024-03-29T00:25:27;9.70;99.90
6724;DHT22;3399;52.530;13.304;2024-03-29T00:27:53;9.70;99.90
6724;DHT22;3399;52.530;13.304;2024-03-29T00:30:18;9.80;99.90
6724;DHT22;3399;52.530;13.304;2024-03-29T00:32:44;9.90;99.90
6724;DHT22;3399;52.530;13.304;2024-03-29T00:35:09;10.00;99.90
6724;DHT22;3399;52.530;13.304;2024-03-29T00:37:35;10.00;99.90
6724;DHT22;3399;52.530;13.304;2024-03-29T00:40:01;10.00;99.90
6724;DHT22;3399;52.530;13.304;2024-03-29T00:42:26;10.10;99.90
6724;DHT22;3399;52.530;13.304;2024-03-29T00:44:52;10.10;99.90
6724;DHT22;3399;52.530;13.304;2024-03-29T00:47:17;10.10;99.90
6724;DHT22;3399;52.530;13.304;2024-03-29T00:49:43;10.00;99.90
6724;DHT22;3399;52.530;13.304;2024-03-29T00:52:08;9.90;99.90
6724;DHT22;3399;52.530;13.304;2024-03-29T00:54:34;9.80;99.90
6724;DHT22;3399;52.530;13.304;2024-03-29T00:56:59;9.70;99.90
6724;DHT22;3399;52.530;13.304;2024-03-29T00:59:25;9.70;99.90
6724;DHT22;3399;52.530;13.304;2024-03-29T01:01:50;9.50;99.90
6724;DHT22;3399;52.530;13.304;2024-03-29T01:04:17;9.40;99.90
6724;DHT22;3399;52.530;13.304;2024-03-29T01:06:43;9.20;99.90
6724;DHT22;3399;52.530;13.304;2024-03-29T01:09:08;9.20;99.90
6724;DHT22;3399;52.530;13.304;2024-03-29T01:11:40;9.10;99.90
6724;DHT22;3399;52.530;13.304;2024-03-29T01:14:06;9.00;99.90
6724;DHT22;3399;52.530;13.304;2024-03-29T01:16:32;9.00;99.90
6724;DHT22;3399;52.530;13.304;2024-03-29T01:18:58;8.90;99.90
6724;DHT22;3399;52.530;13.304;2024-03-29T01:21:25;8.90;99.90
6724;DHT22;3399;52.530;13.304;2024-03-29T01:23:51;8.90;99.90
6724;DHT22;3399;52.530;13.304;2024-03-29T01:26:16;8.80;99.90
6724;DHT22;3399;52.530;13.304;2024-03-29T01:28:45;8.80;99.90
6724;DHT22;3399;52.530;13.304;2024-03-29T01:31:11;8.80;99.90
6724;DHT22;3399;52.530;13.304;2024-03-29T01:33:37;8.80;99.90
6724;DHT22;3399;52.530;13.304;2024-03-29T01:36:04;8.80;99.90
6724;DHT22;3399;52.530;13.304;2024-03-29T01:38:30;8.80;99.90
6724;DHT22;3399;52.530;13.304;2024-03-29T01:40:56;8.70;99.90
6724;DHT22;3399;52.530;13.304;2024-03-29T01:43:22;8.70;99.90
6724;DHT22;3399;52.530;13.304;2024-03-29T01:45:49;8.60;99.90
6724;DHT22;3399;52.530;13.304;2024-03-29T01:48:17;8.60;99.90
6724;DHT22;3399;52.530;13.304;2024-03-29T01:50:43;8.60;99.90
6724;DHT22;3399;52.530;13.304;2024-03-29T01:53:10;8.60;99.90
6724;DHT22;3399;52.530;13.304;2024-03-29T01:55:37;8.60;99.90
6724;DHT22;3399;52.530;13.304;2024-03-29T01:58:02;8.50;99.90
6724;DHT22;3399;52.530;13.304;2024-03-29T02:00:30;8.50;99.90
6724;DHT22;3399;52.530;13.304;2024-03-29T02:02:56;8.40;99.90
6724;DHT22;3399;52.530;13.304;2024-03-29T02:05:22;8.50;99.90
6724;DHT22;3399;52.530;13.304;2024-03-29T02:07:48;8.40;99.90
6724;DHT22;3399;52.530;13.304;2024-03-29T02:10:15;8.40;99.90
6724;DHT22;3399;52.530;13.304;2024-03-29T02:12:40;8.40;99.90
6724;DHT22;3399;52.530;13.304;2024-03-29T02:15:06;8.40;99.90
6724;DHT22;3399;52.530;13.304;2024-03-29T02:17:32;8.40;99.90
6724;DHT22;3399;52.530;13.304;2024-03-29T02:19:58;8.30;99.90
6724;DHT22;3399;52.530;13.304;2024-03-29T02:22:24;8.30;99.90
6724;DHT22;3399;52.530;13.304;2024-03-29T02:24:51;8.30;99.90
6724;DHT22;3399;52.530;13.304;2024-03-29T02:27:17;8.20;99.90
6724;DHT22;3399;52.530;13.304;2024-03-29T02:29:43;8.20;99.90
6724;DHT22;3399;52.530;13.304;2024-03-29T02:32:08;8.20;99.90
6724;DHT22;3399;52.530;13.304;2024-03-29T02:34:34;8.20;99.90
6724;DHT22;3399;52.530;13.304;2024-03-29T02:36:59;8.10;99.90
6724;DHT22;3399;52.530;13.304;2024-03-29T02:39:25;8.10;99.90
6724;DHT22;3399;52.530;13.304;2024-03-29T02:41:50;8.00;99.90
6724;DHT22;3399;52.530;13.304;2024-03-29T02:44:16;8.00;99.90
6724;DHT22;3399;52.530;13.304;2024-03-29T02:46:42;8.10;99.90
6724;DHT22;3399;52.530;13.304;2024-03-29T02:49:08;8.10;99.90
6724;DHT22;3399;52.530;13.304;2024-03-29T02:51:34;8.10;99.90
6724;DHT22;3399;52.530;13.304;2024-03-29T02:54:00;8.00;99.90
6724;DHT22;3399;52.530;13.304;2024-03-29T02:56:25;8.00;99.90
6724;DHT22;3399;52.530;13.304;2024-03-29T02:58:52;7.90;99.90
6724;DHT22;3399;52.530;13.304;2024-03-29T03:01:18;7.90;99.90
6724;DHT22;3399;52.530;13.304;2024-03-29T03:03:43;7.90;99.90
6724;DHT22;3399;52.530;13.304;2024-03-29T03:06:09;7.90;99.90
6724;DHT22;3399;52.530;13.304;2024-03-29T03:08:34;7.90;99.90
6724;DHT22;3399;52.530;13.304;2024-03-29T03:11:18;7.90;99.90
6724;DHT22;3399;52.530;13.304;2024-03-29T03:13:44;7.90;99.90
6724;DHT22;3399;52.530;13.304;2024-03-29T03:16:09;7.80;99.90
6724;DHT22;3399;52.530;13.304;2024-03-29T03:18:35;7.80;99.90
6724;DHT22;3399;52.530;13.304;2024-03-29T03:21:01;7.80;99.90
6724;DHT22;3399;52.530;13.304;2024-03-29T03:23:28;7.70;99.90
6724;DHT22;3399;52.530;13.304;2024-03-29T03:25:55;7.60;99.90
6724;DHT22;3399;52.530;13.304;2024-03-29T03:28:20;7.60;99.90
6724;DHT22;3399;52.530;13.304;2024-03-29T03:30:47;7.70;99.90
6724;DHT22;3399;52.530;13.304;2024-03-29T03:33:12;7.60;99.90
6724;DHT22;3399;52.530;13.304;2024-03-29T03:35:38;7.50;99.90
6724;DHT22;3399;52.530;13.304;2024-03-29T03:38:03;7.50;99.90
6724;DHT22;3399;52.530;13.304;2024-03-29T03:40:29;7.50;99.90
6724;DHT22;3399;52.530;13.304;2024-03-29T03:42:55;7.50;99.90
6724;DHT22;3399;52.530;13.304;2024-03-29T03:45:20;7.50;99.90
6724;DHT22;3399;52.530;13.304;2024-03-29T03:47:46;7.50;99.90
6724;DHT22;3399;52.530;13.304;2024-03-29T03:50:11;7.40;99.90
6724;DHT22;3399;52.530;13.304;2024-03-29T03:52:37;7.40;99.90
6724;DHT22;3399;52.530;13.304;2024-03-29T03:55:02;7.40;99.90
6724;DHT22;3399;52.530;13.304;2024-03-29T03:57:28;7.40;99.90
6724;DHT22;3399;52.530;13.304;2024-03-29T03:59:53;7.30;99.90
6724;DHT22;3399;52.530;13.304;2024-03-29T04:02:19;7.40;99.90
6724;DHT22;3399;52.530;13.304;2024-03-29T04:04:47;7.40;99.90
6724;DHT22;3399;52.530;13.304;2024-03-29T04:07:13;7.40;99.90
6724;DHT22;3399;52.530;13.304;2024-03-29T04:09:39;7.40;99.90
6724;DHT22;3399;52.530;13.304;2024-03-29T04:12:04;7.40;99.90
6724;DHT22;3399;52.530;13.304;2024-03-29T04:14:30;7.40;99.90
6724;DHT22;3399;52.530;13.304;2024-03-29T04:16:55;7.30;99.90
6724;DHT22;3399;52.530;13.304;2024-03-29T04:19:21;7.40;99.90
6724;DHT22;3399;52.530;13.304;2024-03-29T04:21:46;7.40;99.90
6724;DHT22;3399;52.530;13.304;2024-03-29T04:24:12;7.40;99.90
6724;DHT22;3399;52.530;13.304;2024-03-29T04:26:38;7.40;99.90
6724;DHT22;3399;52.530;13.304;2024-03-29T04:29:05;7.40;99.90
6724;DHT22;3399;52.530;13.304;2024-03-29T04:31:30;7.50;99.90
6724;DHT22;3399;52.530;13.304;2024-03-29T04:33:56;7.40;99.90
6724;DHT22;3399;52.530;13.304;2024-03-29T04:36:22;7.50;99.90
6724;DHT22;3399;52.530;13.304;2024-03-29T04:38:48;7.50;99.90
6724;DHT22;3399;52.530;13.304;2024-03-29T04:41:13;7.50;99.90
6724;DHT22;3399;52.530;13.304;2024-03-29T04:43:40;7.50;99.90
6724;DHT22;3399;52.530;13.304;2024-03-29T04:46:10;7.50;99.90
6724;DHT22;3399;52.530;13.304;2024-03-29T04:48:41;7.50;99.90
6724;DHT22;3399;52.530;13.304;2024-03-29T04:51:07;7.50;99.90
6724;DHT22;3399;52.530;13.304;2024-03-29T04:53:36;7.50;99.90
6724;DHT22;3399;52.530;13.304;2024-03-29T04:56:02;7.60;99.90
6724;DHT22;3399;52.530;13.304;2024-03-29T04:58:28;7.60;99.90
6724;DHT22;3399;52.530;13.304;2024-03-29T05:00:54;7.60;99.90
6724;DHT22;3399;52.530;13.304;2024-03-29T05:03:20;7.60;99.90
6724;DHT22;3399;52.530;13.304;2024-03-29T05:05:46;7.60;99.90
6724;DHT22;3399;52.530;13.304;2024-03-29T05:08:12;7.60;99.90
6724;DHT22;3399;52.530;13.304;2024-03-29T05:10:39;7.60;99.90
6724;DHT22;3399;52.530;13.304;2024-03-29T05:13:05;7.60;99.90
6724;DHT22;3399;52.530;13.304;2024-03-29T05:15:31;7.60;99.90
6724;DHT22;3399;52.530;13.304;2024-03-29T05:17:57;7.70;99.90
6724;DHT22;3399;52.530;13.304;2024-03-29T05:20:22;7.70;99.90
6724;DHT22;3399;52.530;13.304;2024-03-29T05:22:48;7.70;99.90
6724;DHT22;3399;52.530;13.304;2024-03-29T05:25:13;7.70;99.90
6724;DHT22;3399;52.530;13.304;2024-03-29T05:27:39;7.80;99.90
6724;DHT22;3399;52.530;13.304;2024-03-29T05:30:05;7.80;99.90
6724;DHT22;3399;52.530;13.304;2024-03-29T05:32:30;7.80;99.90
6724;DHT22;3399;52.530;13.304;2024-03-29T05:34:56;7.80;99.90
6724;DHT22;3399;52.530;13.304;2024-03-29T05:37:22;7.80;99.90
6724;DHT22;3399;52.530;13.304;2024-03-29T05:39:50;7.90;99.90
6724;DHT22;3399;52.530;13.304;2024-03-29T05:42:24;7.90;99.90
6724;DHT22;3399;52.530;13.304;2024-03-29T05:44:50;7.90;99.90
6724;DHT22;3399;52.530;13.304;2024-03-29T05:47:15;7.90;99.90
6724;DHT22;3399;52.530;13.304;2024-03-29T05:49:41;8.00;99.90
6724;DHT22;3399;52.530;13.304;2024-03-29T05:52:06;8.00;99.90
6724;DHT22;3399;52.530;13.304;2024-03-29T05:54:32;8.00;99.90
6724;DHT22;3399;52.530;13.304;2024-03-29T05:56:57;8.00;99.90
6724;DHT22;3399;52.530;13.304;2024-03-29T05:59:23;8.00;99.90
6724;DHT22;3399;52.530;13.304;2024-03-29T06:01:48;8.10;99.90
6724;DHT22;3399;52.530;13.304;2024-03-29T06:04:14;8.10;99.90
6724;DHT22;3399;52.530;13.304;2024-03-29T06:06:44;8.10;99.90
6724;DHT22;3399;52.530;13.304;2024-03-29T06:09:09;8.20;99.90
6724;DHT22;3399;52.530;13.304;2024-03-29T06:11:35;8.20;99.90
6724;DHT22;3399;52.530;13.304;2024-03-29T06:14:01;8.20;99.90
6724;DHT22;3399;52.530;13.304;2024-03-29T06:16:28;8.30;99.90
6724;DHT22;3399;52.530;13.304;2024-03-29T06:19:12;8.20;99.90
6724;DHT22;3399;52.530;13.304;2024-03-29T06:21:38;8.30;99.90
6724;DHT22;3399;52.530;13.304;2024-03-29T06:24:11;8.30;99.90
6724;DHT22;3399;52.530;13.304;2024-03-29T06:26:41;8.40;99.90
6724;DHT22;3399;52.530;13.304;2024-03-29T06:29:07;8.50;99.90
6724;DHT22;3399;52.530;13.304;2024-03-29T06:31:35;8.50;99.90
6724;DHT22;3399;52.530;13.304;2024-03-29T06:34:01;8.50;99.90
6724;DHT22;3399;52.530;13.304;2024-03-29T06:36:26;8.60;99.90
6724;DHT22;3399;52.530;13.304;2024-03-29T06:38:55;8.70;99.90
6724;DHT22;3399;52.530;13.304;2024-03-29T06:41:21;8.70;99.90
6724;DHT22;3399;52.530;13.304;2024-03-29T06:43:46;8.80;99.90
6724;DHT22;3399;52.530;13.304;2024-03-29T06:46:13;8.80;99.90
6724;DHT22;3399;52.530;13.304;2024-03-29T06:48:38;8.90;99.90
6724;DHT22;3399;52.530;13.304;2024-03-29T06:51:04;9.00;99.90
6724;DHT22;3399;52.530;13.304;2024-03-29T06:53:30;9.00;99.90
6724;DHT22;3399;52.530;13.304;2024-03-29T06:55:56;9.10;99.90
6724;DHT22;3399;52.530;13.304;2024-03-29T06:58:22;9.10;99.90
6724;DHT22;3399;52.530;13.304;2024-03-29T07:00:48;9.20;99.90
6724;DHT22;3399;52.530;13.304;2024-03-29T07:03:18;9.30;99.90
6724;DHT22;3399;52.530;13.304;2024-03-29T07:05:45;9.40;99.90
6724;DHT22;3399;52.530;13.304;2024-03-29T07:08:11;9.50;99.90
6724;DHT22;3399;52.530;13.304;2024-03-29T07:10:36;9.60;99.90
6724;DHT22;3399;52.530;13.304;2024-03-29T07:13:02;9.60;99.90
6724;DHT22;3399;52.530;13.304;2024-03-29T07:15:27;9.50;99.90
6724;DHT22;3399;52.530;13.304;2024-03-29T07:17:53;9.60;99.90
6724;DHT22;3399;52.530;13.304;2024-03-29T07:20:19;9.70;99.90
6724;DHT22;3399;52.530;13.304;2024-03-29T07:22:44;9.70;99.90
6724;DHT22;3399;52.530;13.304;2024-03-29T07:25:11;9.70;99.90
6724;DHT22;3399;52.530;13.304;2024-03-29T07:27:36;9.70;99.90
6724;DHT22;3399;52.530;13.304;2024-03-29T07:30:06;9.70;99.90
6724;DHT22;3399;52.530;13.304;2024-03-29T07:32:33;9.70;99.90
6724;DHT22;3399;52.530;13.304;2024-03-29T07:34:59;9.80;99.90
6724;DHT22;3399;52.530;13.304;2024-03-29T07:37:25;9.80;99.90
6724;DHT22;3399;52.530;13.304;2024-03-29T07:39:51;9.90;99.90
6724;DHT22;3399;52.530;13.304;2024-03-29T07:42:16;9.90;99.90
6724;DHT22;3399;52.530;13.304;2024-03-29T07:44:45;10.10;99.90
6724;DHT22;3399;52.530;13.304;2024-03-29T07:47:10;10.20;99.90
6724;DHT22;3399;52.530;13.304;2024-03-29T07:49:38;10.20;99.90
6724;DHT22;3399;52.530;13.304;2024-03-29T07:52:04;10.30;99.90
6724;DHT22;3399;52.530;13.304;2024-03-29T07:54:31;10.30;99.90
6724;DHT22;3399;52.530;13.304;2024-03-29T07:56:57;10.30;99.90
6724;DHT22;3399;52.530;13.304;2024-03-29T07:59:22;10.30;99.90
6724;DHT22;3399;52.530;13.304;2024-03-29T08:01:48;10.30;99.90
6724;DHT22;3399;52.530;13.304;2024-03-29T08:04:13;10.30;99.90
6724;DHT22;3399;52.530;13.304;2024-03-29T08:06:39;10.40;99.90
6724;DHT22;3399;52.530;13.304;2024-03-29T08:09:04;10.40;99.90
6724;DHT22;3399;52.530;13.304;2024-03-29T08:11:30;10.40;99.90
6724;DHT22;3399;52.530;13.304;2024-03-29T08:13:55;10.40;99.90
6724;DHT22;3399;52.530;13.304;2024-03-29T08:16:21;10.40;99.90
6724;DHT22;3399;52.530;13.304;2024-03-29T08:18:47;10.50;99.90
6724;DHT22;3399;52.530;13.304;2024-03-29T08:21:15;10.50;99.90
6724;DHT22;3399;52.530;13.304;2024-03-29T08:23:41;10.40;99.90
6724;DHT22;3399;52.530;13.304;2024-03-29T08:26:07;10.40;99.90
6724;DHT22;3399;52.530;13.304;2024-03-29T08:28:36;10.40;99.90
6724;DHT22;3399;52.530;13.304;2024-03-29T08:31:06;10.50;99.90
6724;DHT22;3399;52.530;13.304;2024-03-29T08:33:33;10.60;99.90
6724;DHT22;3399;52.530;13.304;2024-03-29T08:35:59;10.60;99.90
6724;DHT22;3399;52.530;13.304;2024-03-29T08:38:25;10.80;99.90
6724;DHT22;3399;52.530;13.304;2024-03-29T08:40:50;10.80;99.90
6724;DHT22;3399;52.530;13.304;2024-03-29T08:43:16;11.00;99.90
6724;DHT22;3399;52.530;13.304;2024-03-29T08:45:44;11.00;99.90
6724;DHT22;3399;52.530;13.304;2024-03-29T08:48:09;11.10;99.90
6724;DHT22;3399;52.530;13.304;2024-03-29T08:50:35;11.20;99.90
6724;DHT22;3399;52.530;13.304;2024-03-29T08:53:01;11.10;99.90
6724;DHT22;3399;52.530;13.304;2024-03-29T08:55:29;11.20;99.90
6724;DHT22;3399;52.530;13.304;2024-03-29T08:57:54;11.30;99.90
6724;DHT22;3399;52.530;13.304;2024-03-29T09:00:20;11.60;99.90
6724;DHT22;3399;52.530;13.304;2024-03-29T09:02:46;11.60;99.90
6724;DHT22;3399;52.530;13.304;2024-03-29T09:05:12;11.80;99.90
6724;DHT22;3399;52.530;13.304;2024-03-29T09:07:37;11.90;99.90
6724;DHT22;3399;52.530;13.304;2024-03-29T09:10:04;12.00;99.90
6724;DHT22;3399;52.530;13.304;2024-03-29T09:12:29;12.10;99.90
6724;DHT22;3399;52.530;13.304;2024-03-29T09:14:55;12.10;99.90
6724;DHT22;3399;52.530;13.304;2024-03-29T09:17:20;12.20;99.90
6724;DHT22;3399;52.530;13.304;2024-03-29T09:19:49;12.20;99.90
6724;DHT22;3399;52.530;13.304;2024-03-29T09:22:16;12.20;99.90
6724;DHT22;3399;52.530;13.304;2024-03-29T09:24:41;12.30;99.90
6724;DHT22;3399;52.530;13.304;2024-03-29T09:27:07;12.40;99.90
6724;DHT22;3399;52.530;13.304;2024-03-29T09:29:32;12.50;99.90
6724;DHT22;3399;52.530;13.304;2024-03-29T09:31:58;12.60;99.90
6724;DHT22;3399;52.530;13.304;2024-03-29T09:34:24;12.50;99.90
6724;DHT22;3399;52.530;13.304;2024-03-29T09:36:49;12.50;99.80
6724;DHT22;3399;52.530;13.304;2024-03-29T09:39:15;12.40;99.90
6724;DHT22;3399;52.530;13.304;2024-03-29T09:41:44;12.50;99.70
6724;DHT22;3399;52.530;13.304;2024-03-29T09:44:10;12.50;99.50
6724;DHT22;3399;52.530;13.304;2024-03-29T09:46:36;12.50;99.60
6724;DHT22;3399;52.530;13.304;2024-03-29T09:49:05;12.50;99.70
6724;DHT22;3399;52.530;13.304;2024-03-29T09:51:32;12.60;99.80
6724;DHT22;3399;52.530;13.304;2024-03-29T09:54:01;12.60;99.70
6724;DHT22;3399;52.530;13.304;2024-03-29T09:56:29;12.70;99.90
6724;DHT22;3399;52.530;13.304;2024-03-29T09:58:55;12.60;98.70
6724;DHT22;3399;52.530;13.304;2024-03-29T10:01:22;12.60;98.70
6724;DHT22;3399;52.530;13.304;2024-03-29T10:03:49;12.70;98.90
6724;DHT22;3399;52.530;13.304;2024-03-29T10:06:18;12.70;98.30
6724;DHT22;3399;52.530;13.304;2024-03-29T10:08:45;12.70;98.50
6724;DHT22;3399;52.530;13.304;2024-03-29T10:11:11;12.80;98.90
6724;DHT22;3399;52.530;13.304;2024-03-29T10:13:42;12.90;98.60
6724;DHT22;3399;52.530;13.304;2024-03-29T10:16:09;13.00;98.70
6724;DHT22;3399;52.530;13.304;2024-03-29T10:18:36;13.00;98.80
6724;DHT22;3399;52.530;13.304;2024-03-29T10:21:03;12.80;99.90
6724;DHT22;3399;52.530;13.304;2024-03-29T10:23:29;12.50;99.90
6724;DHT22;3399;52.530;13.304;2024-03-29T10:25:55;12.40;99.90
6724;DHT22;3399;52.530;13.304;2024-03-29T10:28:21;12.30;99.90
6724;DHT22;3399;52.530;13.304;2024-03-29T10:30:47;12.20;99.90
6724;DHT22;3399;52.530;13.304;2024-03-29T10:33:13;12.30;99.90
6724;DHT22;3399;52.530;13.304;2024-03-29T10:35:42;12.20;99.90
6724;DHT22;3399;52.530;13.304;2024-03-29T10:38:10;12.30;99.90
6724;DHT22;3399;52.530;13.304;2024-03-29T10:40:38;12.30;99.90
6724;DHT22;3399;52.530;13.304;2024-03-29T10:43:04;12.30;99.90
6724;DHT22;3399;52.530;13.304;2024-03-29T10:45:34;12.20;99.90
6724;DHT22;3399;52.530;13.304;2024-03-29T10:48:02;12.30;99.90
6724;DHT22;3399;52.530;13.304;2024-03-29T10:50:31;12.30;99.90
6724;DHT22;3399;52.530;13.304;2024-03-29T10:53:00;12.40;99.90
6724;DHT22;3399;52.530;13.304;2024-03-29T10:55:29;12.40;99.90
6724;DHT22;3399;52.530;13.304;2024-03-29T10:57:57;12.40;99.90
6724;DHT22;3399;52.530;13.304;2024-03-29T11:00:24;12.30;99.90
6724;DHT22;3399;52.530;13.304;2024-03-29T11:03:10;12.30;99.90
6724;DHT22;3399;52.530;13.304;2024-03-29T11:05:38;12.30;99.90
6724;DHT22;3399;52.530;13.304;2024-03-29T11:08:06;12.30;99.90
6724;DHT22;3399;52.530;13.304;2024-03-29T11:10:40;12.40;99.90
6724;DHT22;3399;52.530;13.304;2024-03-29T11:16:14;12.40;99.90
6724;DHT22;3399;52.530;13.304;2024-03-29T11:18:42;12.50;99.90
6724;DHT22;3399;52.530;13.304;2024-03-29T11:21:09;12.60;99.90
6724;DHT22;3399;52.530;13.304;2024-03-29T11:23:36;12.60;99.90
6724;DHT22;3399;52.530;13.304;2024-03-29T11:26:02;12.70;99.90
6724;DHT22;3399;52.530;13.304;2024-03-29T11:28:33;12.80;99.90
6724;DHT22;3399;52.530;13.304;2024-03-29T11:31:07;12.80;99.90
6724;DHT22;3399;52.530;13.304;2024-03-29T11:33:44;12.80;99.90
6724;DHT22;3399;52.530;13.304;2024-03-29T11:36:18;12.80;99.90
6724;DHT22;3399;52.530;13.304;2024-03-29T11:38:49;12.80;99.90
6724;DHT22;3399;52.530;13.304;2024-03-29T11:41:15;12.90;99.90
6724;DHT22;3399;52.530;13.304;2024-03-29T11:43:41;12.90;99.90
6724;DHT22;3399;52.530;13.304;2024-03-29T11:46:12;12.90;99.90
6724;DHT22;3399;52.530;13.304;2024-03-29T11:48:39;12.90;99.90
6724;DHT22;3399;52.530;13.304;2024-03-29T11:51:08;12.80;99.90
6724;DHT22;3399;52.530;13.304;2024-03-29T11:53:35;12.80;99.90
6724;DHT22;3399;52.530;13.304;2024-03-29T11:56:01;12.90;99.90
6724;DHT22;3399;52.530;13.304;2024-03-29T11:58:28;12.80;99.90
6724;DHT22;3399;52.530;13.304;2024-03-29T12:00:55;12.90;99.90
6724;DHT22;3399;52.530;13.304;2024-03-29T12:03:22;12.90;99.90
6724;DHT22;3399;52.530;13.304;2024-03-29T12:05:51;12.90;99.90
6724;DHT22;3399;52.530;13.304;2024-03-29T12:08:20;13.00;99.90
6724;DHT22;3399;52.530;13.304;2024-03-29T12:10:46;13.00;99.90
6724;DHT22;3399;52.530;13.304;2024-03-29T12:13:14;13.00;99.90
6724;DHT22;3399;52.530;13.304;2024-03-29T12:15:40;13.00;99.90
6724;DHT22;3399;52.530;13.304;2024-03-29T12:18:06;13.00;99.90
6724;DHT22;3399;52.530;13.304;2024-03-29T12:20:33;13.00;99.90
6724;DHT22;3399;52.530;13.304;2024-03-29T12:23:03;13.00;99.90
6724;DHT22;3399;52.530;13.304;2024-03-29T12:25:29;13.00;99.90
6724;DHT22;3399;52.530;13.304;2024-03-29T12:27:57;13.00;99.90
6724;DHT22;3399;52.530;13.304;2024-03-29T12:30:23;13.00;99.90
6724;DHT22;3399;52.530;13.304;2024-03-29T12:33:00;13.10;99.90
6724;DHT22;3399;52.530;13.304;2024-03-29T12:35:27;13.20;99.90
6724;DHT22;3399;52.530;13.304;2024-03-29T12:37:52;13.40;99.90
6724;DHT22;3399;52.530;13.304;2024-03-29T12:40:19;13.60;99.90
6724;DHT22;3399;52.530;13.304;2024-03-29T12:42:51;13.80;99.90
6724;DHT22;3399;52.530;13.304;2024-03-29T12:45:21;14.00;99.90
6724;DHT22;3399;52.530;13.304;2024-03-29T12:47:48;14.40;99.90
6724;DHT22;3399;52.530;13.304;2024-03-29T12:50:19;14.80;99.90
6724;DHT22;3399;52.530;13.304;2024-03-29T12:52:49;15.30;99.90
6724;DHT22;3399;52.530;13.304;2024-03-29T12:55:15;15.70;99.90
6724;DHT22;3399;52.530;13.304;2024-03-29T12:57:43;16.00;98.90
6724;DHT22;3399;52.530;13.304;2024-03-29T13:00:12;15.90;97.90
6724;DHT22;3399;52.530;13.304;2024-03-29T13:02:38;15.60;98.00
6724;DHT22;3399;52.530;13.304;2024-03-29T13:05:04;15.40;97.60
6724;DHT22;3399;52.530;13.304;2024-03-29T13:07:31;15.20;98.10
6724;DHT22;3399;52.530;13.304;2024-03-29T13:09:57;15.20;97.80
6724;DHT22;3399;52.530;13.304;2024-03-29T13:12:24;15.10;97.40
6724;DHT22;3399;52.530;13.304;2024-03-29T13:14:49;15.10;97.30
6724;DHT22;3399;52.530;13.304;2024-03-29T13:17:15;15.00;96.40
6724;DHT22;3399;52.530;13.304;2024-03-29T13:19:41;15.00;95.90
6724;DHT22;3399;52.530;13.304;2024-03-29T13:22:06;14.90;96.30
6724;DHT22;3399;52.530;13.304;2024-03-29T13:24:32;14.90;95.20
6724;DHT22;3399;52.530;13.304;2024-03-29T13:26:58;14.90;95.20
6724;DHT22;3399;52.530;13.304;2024-03-29T13:29:24;15.00;95.50
6724;DHT22;3399;52.530;13.304;2024-03-29T13:31:49;15.10;94.80
6724;DHT22;3399;52.530;13.304;2024-03-29T13:34:15;15.20;94.10
6724;DHT22;3399;52.530;13.304;2024-03-29T13:36:43;15.20;94.10
6724;DHT22;3399;52.530;13.304;2024-03-29T13:39:08;15.30;93.70
6724;DHT22;3399;52.530;13.304;2024-03-29T13:41:34;15.60;93.20
6724;DHT22;3399;52.530;13.304;2024-03-29T13:44:04;15.80;92.80
6724;DHT22;3399;52.530;13.304;2024-03-29T13:46:34;16.30;91.60
6724;DHT22;3399;52.530;13.304;2024-03-29T13:49:01;16.50;90.70
6724;DHT22;3399;52.530;13.304;2024-03-29T13:51:27;16.50;90.00
6724;DHT22;3399;52.530;13.304;2024-03-29T13:53:53;16.70;89.40
6724;DHT22;3399;52.530;13.304;2024-03-29T13:56:20;17.20;85.90
6724;DHT22;3399;52.530;13.304;2024-03-29T13:58:53;17.30;83.30
6724;DHT22;3399;52.530;13.304;2024-03-29T14:01:19;17.00;82.70
6724;DHT22;3399;52.530;13.304;2024-03-29T14:03:44;17.20;84.90
6724;DHT22;3399;52.530;13.304;2024-03-29T14:06:11;17.70;83.30
6724;DHT22;3399;52.530;13.304;2024-03-29T14:08:36;17.90;82.10
6724;DHT22;3399;52.530;13.304;2024-03-29T14:11:02;17.90;79.70
6724;DHT22;3399;52.530;13.304;2024-03-29T14:13:28;18.30;79.50
6724;DHT22;3399;52.530;13.304;2024-03-29T14:15:54;19.00;76.90
6724;DHT22;3399;52.530;13.304;2024-03-29T14:18:23;19.50;74.10
6724;DHT22;3399;52.530;13.304;2024-03-29T14:20:49;19.10;73.30
6724;DHT22;3399;52.530;13.304;2024-03-29T14:23:14;18.50;73.40
6724;DHT22;3399;52.530;13.304;2024-03-29T14:25:44;18.20;74.60
6724;DHT22;3399;52.530;13.304;2024-03-29T14:28:10;18.00;75.10
6724;DHT22;3399;52.530;13.304;2024-03-29T14:30:35;17.60;76.50
6724;DHT22;3399;52.530;13.304;2024-03-29T14:33:05;17.60;78.00
6724;DHT22;3399;52.530;13.304;2024-03-29T14:35:34;17.70;78.10
6724;DHT22;3399;52.530;13.304;2024-03-29T14:38:00;17.70;78.10
6724;DHT22;3399;52.530;13.304;2024-03-29T14:40:26;17.80;78.50
6724;DHT22;3399;52.530;13.304;2024-03-29T14:42:54;18.20;77.90
6724;DHT22;3399;52.530;13.304;2024-03-29T14:45:21;18.10;76.90
6724;DHT22;3399;52.530;13.304;2024-03-29T14:47:46;18.00;77.70
6724;DHT22;3399;52.530;13.304;2024-03-29T14:50:12;18.00;78.50
6724;DHT22;3399;52.530;13.304;2024-03-29T14:52:38;17.90;78.30
6724;DHT22;3399;52.530;13.304;2024-03-29T14:55:04;17.90;78.80
6724;DHT22;3399;52.530;13.304;2024-03-29T14:57:30;17.90;78.90
6724;DHT22;3399;52.530;13.304;2024-03-29T14:59:56;17.70;79.30
6724;DHT22;3399;52.530;13.304;2024-03-29T15:02:21;17.50;82.00
6724;DHT22;3399;52.530;13.304;2024-03-29T15:04:47;17.30;82.00
6724;DHT22;3399;52.530;13.304;2024-03-29T15:07:12;17.10;82.50
6724;DHT22;3399;52.530;13.304;2024-03-29T15:09:38;17.00;83.80
6724;DHT22;3399;52.530;13.304;2024-03-29T15:12:04;17.10;84.10
6724;DHT22;3399;52.530;13.304;2024-03-29T15:14:31;17.00;85.30
6724;DHT22;3399;52.530;13.304;2024-03-29T15:16:56;17.00;85.40
6724;DHT22;3399;52.530;13.304;2024-03-29T15:19:22;16.80;86.20
6724;DHT22;3399;52.530;13.304;2024-03-29T15:21:48;16.70;86.90
6724;DHT22;3399;52.530;13.304;2024-03-29T15:24:14;16.70;87.10
6724;DHT22;3399;52.530;13.304;2024-03-29T15:26:40;16.60;88.20
6724;DHT22;3399;52.530;13.304;2024-03-29T15:29:09;16.50;89.10
6724;DHT22;3399;52.530;13.304;2024-03-29T15:31:39;16.40;89.60
6724;DHT22;3399;52.530;13.304;2024-03-29T15:34:05;16.40;90.20
6724;DHT22;3399;52.530;13.304;2024-03-29T15:36:32;16.40;90.20
6724;DHT22;3399;52.530;13.304;2024-03-29T15:38:58;16.30;90.50
6724;DHT22;3399;52.530;13.304;2024-03-29T15:41:34;16.20;90.60
6724;DHT22;3399;52.530;13.304;2024-03-29T15:44:01;16.20;90.90
6724;DHT22;3399;52.530;13.304;2024-03-29T15:46:28;16.20;91.50
6724;DHT22;3399;52.530;13.304;2024-03-29T15:48:53;16.20;91.40
6724;DHT22;3399;52.530;13.304;2024-03-29T15:51:19;16.10;91.60